Time;durP1;ratioP1;P1;durP2;ratioP2;P2;SDS_P1;SDS_P2;PMS_P1;PMS_P2;Temp;Humidity;BMP_temperature;BMP_pressure;BME280_temperature;BME280_humidity;BME280_pressure;Samples;Min_cycle;Max_cycle;Signal;HPM_P1;HPM_P2
2022/05/27 20:00:38;;;;;;;14.85;4.45;;;614.50;2432.00;;;;;;5070483;28;20892;-74
2022/05/27 20:05:48;;;;;;;7.03;3.70;;;614.50;2432.00;;;;;;5070646;28;20090;-75
2022/05/27 20:08:13;;;;;;;4.47;3.22;;;614.50;2432.00;;;;;;5070661;28;20017;-75
2022/05/27 20:10:39;;;;;;;8.10;3.30;;;614.70;2432.00;;;;;;5070519;28;20032;-75
2022/05/27 20:13:05;;;;;;;10.55;4.18;;;614.60;2432.00;;;;;;5070609;28;20460;-77
2022/05/27 20:15:33;;;;;;;9.20;3.60;;;614.70;2432.00;;;;;;5070510;28;20029;-78
2022/05/27 20:17:59;;;;;;;11.15;3.92;;;614.70;2432.00;;;;;;5070503;28;20025;-78
2022/05/27 20:20:27;;;;;;;7.32;4.30;;;614.60;2432.00;;;;;;5070465;28;20036;-77
2022/05/27 20:22:53;;;;;;;12.90;3.35;;;614.60;2432.00;;;;;;5068710;28;20400;-75
2022/05/27 20:25:20;;;;;;;10.52;3.88;;;614.50;2432.00;;;;;;5070124;28;20468;-76
2022/05/27 20:27:46;;;;;;;8.40;3.97;;;614.60;2432.00;;;;;;5068859;28;20025;-77
2022/05/27 20:30:14;;;;;;;9.52;3.63;;;589.70;2432.00;;;;;;5068979;28;20029;-79
2022/05/27 20:32:40;;;;;;;11.27;3.15;;;614.70;2432.00;;;;;;5068983;28;20046;-77
2022/05/27 20:35:07;;;;;;;5.50;3.05;;;614.80;2432.00;;;;;;5069010;28;20021;-77
2022/05/27 20:37:33;;;;;;;5.18;2.95;;;614.70;2432.00;;;;;;5068877;28;20021;-78
2022/05/27 20:39:59;;;;;;;8.90;3.28;;;614.70;2432.00;;;;;;5068702;28;20037;-78
2022/05/27 20:42:27;;;;;;;9.20;3.78;;;614.70;2432.00;;;;;;5068929;28;20049;-78
2022/05/27 20:44:54;;;;;;;3.45;2.53;;;614.60;2432.00;;;;;;5068854;28;20028;-78
2022/05/27 20:47:22;;;;;;;5.05;3.10;;;614.50;2432.00;;;;;;5070005;28;20107;-79
2022/05/27 20:49:48;;;;;;;5.82;3.15;;;614.50;2432.00;;;;;;5066818;28;20112;-77
2022/05/27 20:52:14;;;;;;;7.53;3.25;;;614.40;2432.00;;;;;;5069362;28;20096;-78
2022/05/27 20:54:40;;;;;;;18.77;3.42;;;614.50;2432.00;;;;;;5069275;28;20122;-77
2022/05/27 20:57:07;;;;;;;5.60;3.78;;;614.50;2432.00;;;;;;5069792;28;20017;-75
2022/05/27 20:59:33;;;;;;;6.95;3.25;;;614.40;2432.00;;;;;;5069387;28;20102;-76
2022/05/27 21:02:00;;;;;;;7.55;3.00;;;589.70;2432.00;;;;;;5067720;28;20021;-75
2022/05/27 21:04:46;;;;;;;9.82;3.70;;;589.70;2432.00;;;;;;5068815;28;20059;-76
2022/05/27 21:07:12;;;;;;;5.63;3.13;;;589.70;2432.00;;;;;;5066420;28;20044;-75
2022/05/27 21:09:40;;;;;;;5.53;3.03;;;589.70;2432.00;;;;;;5069090;28;20055;-77
2022/05/27 21:12:06;;;;;;;5.78;3.08;;;589.60;2432.00;;;;;;5054136;28;20029;-74
2022/05/27 21:14:32;;;;;;;6.03;2.90;;;589.60;2432.00;;;;;;5054153;28;20511;-75
2022/05/27 21:16:58;;;;;;;6.90;3.15;;;589.60;2432.00;;;;;;5055959;28;20021;-75
2022/05/27 21:19:25;;;;;;;4.70;2.97;;;589.60;2432.00;;;;;;5055620;28;20041;-75
2022/05/27 21:21:53;;;;;;;6.53;3.25;;;589.60;2432.00;;;;;;5055513;28;20025;-76
2022/05/27 21:24:26;;;;;;;6.45;3.35;;;589.40;2432.00;;;;;;5055854;28;20025;-77
2022/05/27 21:26:54;;;;;;;5.25;2.97;;;589.40;2432.00;;;;;;5055693;28;20020;-76
2022/05/27 21:29:20;;;;;;;7.55;3.72;;;589.40;2432.00;;;;;;5055645;28;20037;-74
2022/05/27 21:31:46;;;;;;;5.00;3.20;;;589.30;2432.00;;;;;;5055658;28;20021;-77
2022/05/27 21:34:12;;;;;;;8.43;3.85;;;589.20;2432.00;;;;;;5055590;28;20376;-78
2022/05/27 21:36:43;;;;;;;5.72;2.83;;;589.20;2432.00;;;;;;5055601;28;20032;-75
2022/05/27 21:39:11;;;;;;;8.05;3.70;;;589.20;2432.00;;;;;;5055357;28;20048;-74
2022/05/27 21:41:37;;;;;;;7.07;3.63;;;589.20;2432.00;;;;;;5055337;28;20486;-75
2022/05/27 21:44:04;;;;;;;8.43;3.50;;;589.20;2432.00;;;;;;5055411;28;20027;-74
2022/05/27 21:46:30;;;;;;;7.80;4.05;;;589.20;2432.00;;;;;;5055374;28;20075;-76
2022/05/27 21:48:58;;;;;;;6.82;3.53;;;589.20;2432.00;;;;;;5055512;28;20530;-75
2022/05/27 21:51:26;;;;;;;8.43;3.72;;;589.20;2432.00;;;;;;5055047;28;20028;-75
2022/05/27 21:53:52;;;;;;;4.70;3.58;;;589.20;2432.00;;;;;;5055137;28;20025;-75
2022/05/27 21:56:19;;;;;;;7.60;4.05;;;589.10;2432.00;;;;;;5055071;28;20024;-75
2022/05/27 21:58:47;;;;;;;5.35;3.08;;;588.90;2432.00;;;;;;5054889;28;20051;-77
2022/05/27 22:01:14;;;;;;;5.75;3.63;;;588.80;2432.00;;;;;;5055227;28;20032;-77
2022/05/27 22:03:40;;;;;;;8.00;3.88;;;588.90;2432.00;;;;;;5055089;28;20594;-75
2022/05/27 22:06:07;;;;;;;7.72;3.60;;;588.90;2432.00;;;;;;5055061;28;20037;-75
2022/05/27 22:08:37;;;;;;;5.65;3.38;;;588.90;2432.00;;;;;;5055641;28;20111;-75
2022/05/27 22:13:48;;;;;;;9.35;3.85;;;589.10;2432.00;;;;;;5052880;28;20090;-76
2022/05/27 22:16:14;;;;;;;7.78;3.70;;;589.20;2432.00;;;;;;5054404;28;20020;-74
2022/05/27 22:18:40;;;;;;;6.60;3.70;;;589.30;2432.00;;;;;;5054095;28;20142;-75
2022/05/27 22:21:06;;;;;;;5.80;4.30;;;589.30;2432.00;;;;;;5053996;28;20025;-76
2022/05/27 22:23:34;;;;;;;10.80;4.72;;;589.40;2432.00;;;;;;5053306;28;20074;-75
2022/05/27 22:26:01;;;;;;;10.02;4.18;;;589.50;2432.00;;;;;;5051703;28;20469;-75
2022/05/27 22:28:29;;;;;;;8.38;4.75;;;589.50;2432.00;;;;;;5054590;28;20028;-74
2022/05/27 22:30:55;;;;;;;6.47;3.63;;;589.50;2432.00;;;;;;5054559;28;20538;-75
2022/05/27 22:33:21;;;;;;;10.00;4.30;;;589.20;2432.00;;;;;;5054491;28;20370;-75
2022/05/27 22:35:47;;;;;;;8.13;4.63;;;589.20;2432.00;;;;;;5054399;28;20032;-74
2022/05/27 22:38:14;;;;;;;10.35;4.57;;;589.20;2432.00;;;;;;5054300;28;20013;-74
2022/05/27 22:40:40;;;;;;;8.27;4.82;;;589.20;2432.00;;;;;;5053010;28;20476;-74
2022/05/27 22:43:05;;;;;;;10.88;5.13;;;589.20;2432.00;;;;;;5054259;28;20036;-74
2022/05/27 22:45:31;;;;;;;10.27;4.85;;;589.10;2432.00;;;;;;5053043;28;20083;-75
2022/05/27 22:47:57;;;;;;;8.82;5.07;;;589.10;2432.00;;;;;;5054123;28;20025;-75
2022/05/27 22:50:23;;;;;;;6.30;4.35;;;589.10;2432.00;;;;;;5054028;28;20104;-74
2022/05/27 22:52:49;;;;;;;7.55;4.63;;;589.10;2432.00;;;;;;5054366;28;20032;-76
2022/05/27 22:55:15;;;;;;;11.52;4.75;;;589.00;2432.00;;;;;;5054006;28;20017;-75
2022/05/27 22:57:43;;;;;;;9.40;4.03;;;589.00;2432.00;;;;;;5052930;28;20033;-76
2022/05/27 23:00:10;;;;;;;9.60;4.90;;;589.00;2432.00;;;;;;5053462;28;20048;-77
2022/05/27 23:02:37;;;;;;;12.10;4.75;;;588.90;2432.00;;;;;;5054017;28;20025;-75
2022/05/27 23:05:04;;;;;;;11.07;4.68;;;588.90;2432.00;;;;;;5053936;28;20036;-76
2022/05/27 23:07:29;;;;;;;8.15;4.22;;;588.90;2432.00;;;;;;5053916;28;20096;-78
2022/05/27 23:09:55;;;;;;;10.25;5.05;;;588.90;2432.00;;;;;;5053775;28;20044;-75
2022/05/27 23:20:35;;;;;;;7.70;4.53;;;588.80;2432.00;;;;;;5053441;28;20055;-75
2022/05/27 23:23:01;;;;;;;9.10;4.80;;;588.80;2432.00;;;;;;5053607;28;20051;-74
2022/05/27 23:25:28;;;;;;;9.55;4.68;;;588.80;2432.00;;;;;;5053406;28;20065;-75
2022/05/27 23:27:54;;;;;;;9.63;4.75;;;564.10;2432.00;;;;;;5053303;28;20013;-75
2022/05/27 23:30:22;;;;;;;12.65;5.47;;;564.10;2432.00;;;;;;5053400;28;20461;-75
2022/05/27 23:32:48;;;;;;;6.60;4.55;;;564.00;2432.00;;;;;;5053437;28;20503;-74
2022/05/27 23:35:14;;;;;;;11.50;5.68;;;563.90;2432.00;;;;;;5053262;28;20077;-75
2022/05/27 23:37:40;;;;;;;9.43;5.63;;;564.00;2432.00;;;;;;5052077;28;20063;-74
2022/05/27 23:40:06;;;;;;;10.05;5.13;;;564.00;2432.00;;;;;;5053270;28;20048;-75
2022/05/27 23:42:32;;;;;;;6.30;4.80;;;564.00;2432.00;;;;;;5053228;28;20047;-73
2022/05/27 23:44:57;;;;;;;6.90;4.45;;;564.00;2432.00;;;;;;5053276;28;20040;-74
2022/05/27 23:47:23;;;;;;;12.85;5.72;;;563.90;2432.00;;;;;;5052974;28;20139;-75
2022/05/27 23:49:49;;;;;;;10.65;4.93;;;563.90;2432.00;;;;;;5052254;28;20036;-75
2022/05/27 23:52:14;;;;;;;8.48;4.13;;;564.00;2432.00;;;;;;5052708;28;20405;-74
2022/05/27 23:54:40;;;;;;;8.50;4.30;;;564.00;2432.00;;;;;;5052667;28;20025;-75
2022/05/27 23:57:06;;;;;;;6.25;4.47;;;564.00;2432.00;;;;;;5052543;28;20092;-76
2022/05/27 23:59:31;;;;;;;9.88;5.00;;;563.90;2432.00;;;;;;5052202;28;20488;-76
